createdAt,value
2023-04-18T00:01:03.045Z,100167.63
2023-04-18T00:04:05.636Z,100169.28
2023-04-18T00:07:10.610Z,100182.72
2023-04-18T00:10:15.569Z,100184.88
2023-04-18T00:13:20.979Z,100186.22
2023-04-18T00:16:24.072Z,100179.75
2023-04-18T00:19:26.395Z,100183.72
2023-04-18T00:22:28.769Z,100179.81
2023-04-18T00:25:31.076Z,100183.84
2023-04-18T00:28:33.406Z,100182.44
2023-04-18T00:31:35.692Z,100178.56
2023-04-18T00:34:38.142Z,100191.03
2023-04-18T00:37:40.588Z,100186.47
2023-04-18T00:40:43.779Z,100189.13
2023-04-18T00:43:46.146Z,100182.00
2023-04-18T00:46:48.572Z,100188.78
2023-04-18T00:49:53.586Z,100175.84
2023-04-18T00:53:00.931Z,100189.97
2023-04-18T00:56:04.523Z,100182.34
2023-04-18T00:59:10.019Z,100187.00
2023-04-18T01:02:14.963Z,100192.13
2023-04-18T01:05:18.421Z,100179.75
2023-04-18T01:08:21.901Z,100182.50
2023-04-18T01:11:26.893Z,100176.09
2023-04-18T01:14:36.559Z,100185.94
2023-04-18T01:17:39.777Z,100182.94
2023-04-18T01:20:46.732Z,100175.72
2023-04-18T01:23:49.272Z,100173.09
2023-04-18T01:26:51.656Z,100179.50
2023-04-18T01:29:56.149Z,100173.38
2023-04-18T01:32:58.549Z,100180.34
2023-04-18T01:36:02.465Z,100178.50
2023-04-18T01:39:12.230Z,100177.50
2023-04-18T01:42:14.572Z,100173.69
2023-04-18T01:45:22.367Z,100176.31
2023-04-18T01:48:24.583Z,100169.81
2023-04-18T01:51:29.330Z,100177.19
2023-04-18T01:54:31.613Z,100176.09
2023-04-18T01:57:36.750Z,100174.69
2023-04-18T02:00:41.338Z,100180.63
2023-04-18T02:03:43.942Z,100173.97
2023-04-18T02:06:51.268Z,100168.44
2023-04-18T02:09:53.556Z,100189.50
2023-04-18T02:13:03.167Z,100193.94
2023-04-18T02:16:15.119Z,100185.03
2023-04-18T02:19:19.190Z,100185.03
2023-04-18T02:22:21.493Z,100180.16
2023-04-18T02:25:27.700Z,100188.94
2023-04-18T02:28:29.992Z,100186.69
2023-04-18T02:31:34.439Z,100194.06
2023-04-18T02:34:39.514Z,100190.88
2023-04-18T02:37:48.969Z,100187.41
2023-04-18T02:40:52.695Z,100201.78
2023-04-18T02:44:01.051Z,100195.84
2023-04-18T02:47:05.969Z,100194.66
2023-04-18T02:50:11.272Z,100190.38
2023-04-18T02:53:23.936Z,100193.50
2023-04-18T02:56:31.034Z,100196.34
2023-04-18T02:59:53.581Z,100196.59
2023-04-18T03:03:14.424Z,100206.44
2023-04-18T03:06:59.301Z,100206.00
2023-04-18T03:10:03.086Z,100206.94
2023-04-18T03:13:09.472Z,100206.59
2023-04-18T03:16:12.547Z,100216.22
2023-04-18T03:19:18.633Z,100216.22
2023-04-18T03:22:21.434Z,100223.00
2023-04-18T03:25:37.254Z,100212.28
2023-04-18T03:28:40.891Z,100210.38
2023-04-18T03:31:46.358Z,100219.66
2023-04-18T03:34:54.395Z,100221.31
2023-04-18T03:38:02.015Z,100209.00
2023-04-18T03:41:06.761Z,100214.66
2023-04-18T03:44:12.514Z,100221.13
2023-04-18T03:47:17.026Z,100221.47
2023-04-18T03:50:26.009Z,100211.59
2023-04-18T03:53:31.038Z,100210.53
2023-04-18T03:56:36.468Z,100214.34
2023-04-18T03:59:41.084Z,100216.59
2023-04-18T04:02:48.501Z,100213.50
2023-04-18T04:05:58.211Z,100232.88
2023-04-18T04:09:01.487Z,100236.78
2023-04-18T04:12:05.141Z,100234.81
2023-04-18T04:15:11.480Z,100234.78
2023-04-18T04:18:29.733Z,100227.31
2023-04-18T04:21:33.186Z,100241.44
2023-04-18T04:24:42.161Z,100242.16
2023-04-18T04:27:54.462Z,100251.19
2023-04-18T04:31:01.071Z,100251.19
2023-04-18T04:34:06.271Z,100252.81
2023-04-18T04:37:14.229Z,100253.56
2023-04-18T04:40:32.544Z,100248.94
2023-04-18T04:43:44.105Z,100255.25
2023-04-18T04:46:49.844Z,100261.88
2023-04-18T04:49:57.001Z,100261.41
2023-04-18T04:53:01.645Z,100264.75
2023-04-18T04:56:04.918Z,100257.63
2023-04-18T04:59:09.881Z,100269.38
2023-04-18T05:02:16.774Z,100264.84
2023-04-18T05:05:19.544Z,100268.63
2023-04-18T05:08:24.545Z,100270.53
2023-04-18T05:11:31.489Z,100276.00
2023-04-18T05:14:38.566Z,100275.91
2023-04-18T05:17:43.184Z,100269.59
2023-04-18T05:20:47.910Z,100273.03
2023-04-18T05:23:50.678Z,100281.59
2023-04-18T05:26:56.037Z,100282.91
2023-04-18T05:29:58.452Z,100282.31
2023-04-18T05:33:00.972Z,100280.16
2023-04-18T05:36:03.501Z,100285.03
2023-04-18T05:39:10.745Z,100293.69
2023-04-18T05:42:12.976Z,100289.66
2023-04-18T05:45:15.311Z,100287.13
2023-04-18T05:48:21.350Z,100288.22
2023-04-18T05:51:28.696Z,100296.84
2023-04-18T05:54:33.149Z,100291.13
2023-04-18T05:57:35.460Z,100276.00
2023-04-18T06:00:37.715Z,100284.53
2023-04-18T06:03:45.214Z,100287.03
2023-04-18T06:06:52.471Z,100292.06
2023-04-18T06:09:55.078Z,100297.53
2023-04-18T06:12:57.342Z,100293.22
2023-04-18T06:16:00.632Z,100275.25
2023-04-18T06:19:06.222Z,100304.25
2023-04-18T06:22:08.635Z,100295.41
2023-04-18T06:25:10.989Z,100300.25
2023-04-18T06:28:16.025Z,100310.22
2023-04-18T06:31:18.389Z,100305.78
2023-04-18T06:34:20.822Z,100301.91
2023-04-18T06:37:24.062Z,100299.84
2023-04-18T06:40:26.489Z,100296.25
2023-04-18T06:43:28.821Z,100287.59
2023-04-18T06:46:32.199Z,100302.41
2023-04-18T06:49:34.617Z,100292.88
2023-04-18T06:52:44.265Z,100306.91
2023-04-18T06:55:48.830Z,100295.78
2023-04-18T06:58:52.874Z,100306.94
2023-04-18T07:01:57.745Z,100313.84
2023-04-18T07:05:02.529Z,100315.22
2023-04-18T07:08:07.502Z,100309.88
2023-04-18T07:11:13.299Z,100311.69
2023-04-18T07:14:15.724Z,100310.34
2023-04-18T07:17:21.961Z,100321.50
2023-04-18T07:20:26.783Z,100326.09
2023-04-18T07:23:28.993Z,100320.16
2023-04-18T07:26:31.815Z,100324.06
2023-04-18T07:29:34.166Z,100327.53
2023-04-18T07:32:36.495Z,100301.81
2023-04-18T07:35:41.446Z,100329.84
2023-04-18T07:38:46.625Z,100334.28
2023-04-18T07:41:48.917Z,100331.03
2023-04-18T07:44:56.940Z,100340.94
2023-04-18T07:47:59.238Z,100337.63
2023-04-18T07:51:06.342Z,100335.03
2023-04-18T07:54:11.055Z,100348.03
2023-04-18T07:57:15.449Z,100343.94
2023-04-18T08:00:20.940Z,100340.84
2023-04-18T08:03:27.756Z,100346.34
2023-04-18T08:06:30.388Z,100351.16
2023-04-18T08:09:34.913Z,100334.84
2023-04-18T08:12:37.529Z,100343.28
2023-04-18T08:15:42.582Z,100351.53
2023-04-18T08:18:46.008Z,100343.91
2023-04-18T08:21:51.246Z,100351.31
2023-04-18T08:25:04.378Z,100345.84
2023-04-18T08:28:12.651Z,100355.06
2023-04-18T08:31:17.571Z,100351.97
2023-04-18T08:34:19.874Z,100345.97
2023-04-18T08:37:27.857Z,100342.78
2023-04-18T08:40:30.481Z,100358.72
2023-04-18T08:43:35.228Z,100360.25
2023-04-18T08:46:39.959Z,100363.25
2023-04-18T08:49:47.805Z,100364.31
2023-04-18T08:52:53.770Z,100355.34
2023-04-18T08:55:57.117Z,100355.09
2023-04-18T08:59:00.348Z,100352.81
2023-04-18T09:02:06.503Z,100351.06
2023-04-18T09:05:14.399Z,100352.50
2023-04-18T09:08:24.615Z,100341.97
2023-04-18T09:11:34.447Z,100345.16
2023-04-18T09:14:37.626Z,100353.25
2023-04-18T09:17:49.542Z,100349.16
2023-04-18T09:20:54.951Z,100343.28
2023-04-18T09:24:18.003Z,100361.63
2023-04-18T09:27:24.084Z,100356.94
2023-04-18T09:30:51.516Z,100353.31
2023-04-18T09:34:02.132Z,100341.72
2023-04-18T09:37:15.009Z,100357.31
2023-04-18T09:40:20.216Z,100350.28
2023-04-18T09:43:22.490Z,100336.50
2023-04-18T09:46:25.880Z,100340.09
2023-04-18T09:49:30.922Z,100342.78
2023-04-18T09:52:39.328Z,100337.59
2023-04-18T09:55:46.451Z,100332.97
2023-04-18T09:58:57.109Z,100339.78
2023-04-18T10:02:03.738Z,100327.94
2023-04-18T10:05:08.275Z,100339.19
2023-04-18T10:08:11.946Z,100339.91
2023-04-18T10:11:18.582Z,100332.81
2023-04-18T10:14:23.942Z,100333.28
2023-04-18T10:17:29.776Z,100342.03
2023-04-18T10:20:35.505Z,100330.97
2023-04-18T10:23:43.245Z,100335.16
2023-04-18T10:26:46.945Z,100330.28
2023-04-18T10:29:56.642Z,100341.25
2023-04-18T10:32:58.976Z,100339.53
2023-04-18T10:36:17.021Z,100318.84
2023-04-18T10:39:26.397Z,100346.63
2023-04-18T10:42:54.992Z,100337.88
2023-04-18T10:46:23.796Z,100330.69
2023-04-18T10:49:32.853Z,100335.06
2023-04-18T10:52:37.932Z,100325.38
2023-04-18T10:55:49.965Z,100321.72
2023-04-18T10:58:53.505Z,100330.88
2023-04-18T11:02:22.898Z,100324.19
2023-04-18T11:05:30.295Z,100334.44
2023-04-18T11:08:34.962Z,100341.16
2023-04-18T11:11:37.272Z,100348.94
2023-04-18T11:14:46.440Z,100330.72
2023-04-18T11:17:55.894Z,100323.22
2023-04-18T11:21:03.826Z,100332.88
2023-04-18T11:24:06.391Z,100315.28
2023-04-18T11:27:10.015Z,100332.31
2023-04-18T11:30:16.753Z,100333.00
2023-04-18T11:33:22.436Z,100325.53
2023-04-18T11:36:24.778Z,100326.84
2023-04-18T11:39:27.223Z,100335.50
2023-04-18T11:42:32.976Z,100345.59
2023-04-18T11:45:35.474Z,100335.91
2023-04-18T11:48:42.357Z,100332.63
2023-04-18T11:51:46.308Z,100338.41
2023-04-18T11:54:48.566Z,100332.94
2023-04-18T11:58:00.432Z,100339.28
2023-04-18T12:01:22.390Z,100325.19
2023-04-18T12:04:24.850Z,100327.38
2023-04-18T12:07:44.625Z,100332.31
2023-04-18T12:10:47.783Z,100324.00
2023-04-18T12:13:59.040Z,100311.34
2023-04-18T12:17:06.476Z,100315.22
2023-04-18T12:20:11.455Z,100325.38
2023-04-18T12:23:39.799Z,100330.63
2023-04-18T12:26:45.874Z,100333.69
2023-04-18T12:29:50.685Z,100311.34
2023-04-18T12:32:55.068Z,100321.75
2023-04-18T12:35:59.734Z,100332.28
2023-04-18T12:39:02.324Z,100332.66
2023-04-18T12:42:09.488Z,100313.84
2023-04-18T12:45:12.753Z,100326.28
2023-04-18T12:48:22.371Z,100321.34
2023-04-18T12:51:26.607Z,100318.81
2023-04-18T12:54:28.895Z,100332.06
2023-04-18T12:57:34.346Z,100324.09
2023-04-18T13:00:41.370Z,100329.03
2023-04-18T13:03:53.469Z,100320.50
2023-04-18T13:07:06.194Z,100316.13
2023-04-18T13:10:11.590Z,100312.25
2023-04-18T13:13:13.927Z,100337.06
2023-04-18T13:16:18.411Z,100341.75
2023-04-18T13:19:20.697Z,100329.06
2023-04-18T13:22:28.486Z,100323.53
2023-04-18T13:25:30.862Z,100317.72
2023-04-18T13:28:33.538Z,100327.09
2023-04-18T13:31:38.244Z,100317.19
2023-04-18T13:34:46.059Z,100342.00
2023-04-18T13:37:50.942Z,100325.50
2023-04-18T13:41:04.708Z,100323.00
2023-04-18T13:44:14.404Z,100315.00
2023-04-18T13:47:19.240Z,100326.84
2023-04-18T13:50:23.114Z,100337.34
2023-04-18T13:53:25.471Z,100330.72
2023-04-18T13:56:29.275Z,100333.19
2023-04-18T13:59:34.256Z,100335.69
2023-04-18T14:02:42.314Z,100327.97
2023-04-18T14:05:49.560Z,100323.53
2023-04-18T14:08:51.934Z,100320.75
2023-04-18T14:11:58.218Z,100317.19
2023-04-18T14:15:02.957Z,100319.97
2023-04-18T14:18:07.658Z,100315.00
2023-04-18T14:21:12.768Z,100313.59
2023-04-18T14:24:17.576Z,100294.84
2023-04-18T14:27:20.499Z,100335.69
2023-04-18T14:30:22.885Z,100314.44
2023-04-18T14:33:27.543Z,100313.06
2023-04-18T14:36:29.880Z,100313.34
2023-04-18T14:39:32.239Z,100317.75
2023-04-18T14:42:34.425Z,100308.09
2023-04-18T14:45:36.815Z,100320.78
2023-04-18T14:48:46.850Z,100319.13
2023-04-18T14:51:51.457Z,100314.19
2023-04-18T14:54:56.632Z,100308.13
2023-04-18T14:57:58.850Z,100320.78
2023-04-18T15:01:03.189Z,100325.22
2023-04-18T15:04:07.775Z,100317.75
2023-04-18T15:07:10.328Z,100313.06
2023-04-18T15:10:15.331Z,100318.56
2023-04-18T15:13:17.637Z,100316.09
2023-04-18T15:16:19.912Z,100320.25
2023-04-18T15:19:22.272Z,100310.56
2023-04-18T15:22:27.068Z,100314.72
2023-04-18T15:25:30.561Z,100325.50
2023-04-18T15:28:32.916Z,100321.31
2023-04-18T15:31:39.177Z,100315.53
2023-04-18T15:34:41.657Z,100310.56
2023-04-18T15:37:43.913Z,100314.41
2023-04-18T15:40:46.149Z,100320.75
2023-04-18T15:43:52.897Z,100325.75
2023-04-18T15:46:55.525Z,100324.63
2023-04-18T15:49:57.813Z,100324.59
2023-04-18T15:53:02.157Z,100324.91
2023-04-18T15:56:05.957Z,100326.28
2023-04-18T15:59:10.969Z,100334.84
2023-04-18T16:02:13.293Z,100341.16
2023-04-18T16:05:17.718Z,100340.34
2023-04-18T16:08:22.293Z,100328.75
2023-04-18T16:11:27.587Z,100336.47
2023-04-18T16:14:30.592Z,100327.94
2023-04-18T16:17:36.573Z,100331.78
2023-04-18T16:20:38.972Z,100340.59
2023-04-18T16:23:46.225Z,100335.34
2023-04-18T16:26:49.616Z,100333.41
2023-04-18T16:29:54.356Z,100347.13
2023-04-18T16:32:58.859Z,100343.84
2023-04-18T16:36:04.544Z,100333.41
2023-04-18T16:39:09.121Z,100347.69
2023-04-18T16:42:15.678Z,100346.84
2023-04-18T16:45:18.354Z,100333.91
2023-04-18T16:48:26.299Z,100358.16
2023-04-18T16:51:31.292Z,100333.31
2023-04-18T16:54:34.795Z,100353.69
2023-04-18T16:57:37.302Z,100349.28
2023-04-18T17:00:42.167Z,100353.44
2023-04-18T17:03:46.809Z,100353.13
2023-04-18T17:06:51.474Z,100362.47
2023-04-18T17:09:54.338Z,100358.88
2023-04-18T17:12:59.834Z,100357.47
2023-04-18T17:16:02.209Z,100345.81
2023-04-18T17:19:04.812Z,100360.69
2023-04-18T17:22:12.086Z,100354.88
2023-04-18T17:25:14.555Z,100359.59
2023-04-18T17:28:19.100Z,100356.81
2023-04-18T17:31:23.941Z,100355.66
2023-04-18T17:34:28.672Z,100357.84
2023-04-18T17:37:33.531Z,100360.63
2023-04-18T17:40:40.682Z,100354.53
2023-04-18T17:43:45.885Z,100355.91
2023-04-18T17:46:50.007Z,100362.72
2023-04-18T17:49:55.176Z,100362.16
2023-04-18T17:52:57.642Z,100357.19
2023-04-18T17:56:03.721Z,100374.31
2023-04-18T17:59:12.219Z,100378.94
2023-04-18T18:02:17.163Z,100377.25
2023-04-18T18:05:20.973Z,100381.69
2023-04-18T18:08:23.356Z,100378.50
2023-04-18T18:11:27.261Z,100392.00
2023-04-18T18:14:29.544Z,100394.72
2023-04-18T18:17:31.901Z,100375.13
2023-04-18T18:20:42.217Z,100394.41
2023-04-18T18:23:44.492Z,100396.88
2023-04-18T18:26:49.635Z,100387.22
2023-04-18T18:29:53.225Z,100396.06
2023-04-18T18:33:03.788Z,100399.06
2023-04-18T18:36:08.367Z,100395.75
2023-04-18T18:39:14.501Z,100397.97
2023-04-18T18:42:19.256Z,100398.59
2023-04-18T18:45:22.688Z,100401.38
2023-04-18T18:48:30.426Z,100404.13
2023-04-18T18:51:35.779Z,100410.13
2023-04-18T18:54:38.050Z,100406.31
2023-04-18T18:57:42.613Z,100413.13
2023-04-18T19:00:51.139Z,100411.47
2023-04-18T19:03:53.596Z,100414.72
2023-04-18T19:06:58.457Z,100416.91
2023-04-18T19:10:05.876Z,100448.75
2023-04-18T19:13:08.162Z,100459.25
2023-04-18T19:16:16.348Z,100459.06
2023-04-18T19:19:18.615Z,100452.50
2023-04-18T19:22:20.848Z,100459.78
2023-04-18T19:25:23.224Z,100454.31
2023-04-18T19:28:27.891Z,100463.06
2023-04-18T19:31:32.755Z,100450.84
2023-04-18T19:34:37.974Z,100467.22
2023-04-18T19:37:43.213Z,100463.22
2023-04-18T19:40:47.721Z,100466.19
2023-04-18T19:43:50.113Z,100469.38
2023-04-18T19:46:54.638Z,100463.28
2023-04-18T19:50:02.366Z,100468.88
2023-04-18T19:53:07.097Z,100461.63
2023-04-18T19:56:13.670Z,100478.69
2023-04-18T19:59:16.242Z,100469.50
2023-04-18T20:02:18.792Z,100477.22
2023-04-18T20:05:21.294Z,100479.97
2023-04-18T20:08:23.742Z,100480.56
2023-04-18T20:11:26.275Z,100490.47
2023-04-18T20:14:30.509Z,100478.53
2023-04-18T20:17:35.133Z,100477.38
2023-04-18T20:20:37.490Z,100477.06
2023-04-18T20:23:42.716Z,100483.41
2023-04-18T20:26:47.793Z,100485.84
2023-04-18T20:29:52.599Z,100479.88
2023-04-18T20:32:55.069Z,100484.03
2023-04-18T20:35:58.913Z,100486.88
2023-04-18T20:39:02.440Z,100482.81
2023-04-18T20:42:05.026Z,100466.25
2023-04-18T20:45:11.144Z,100477.53
2023-04-18T20:48:16.102Z,100478.31
2023-04-18T20:51:23.282Z,100477.72
2023-04-18T20:54:27.948Z,100471.31
2023-04-18T20:57:32.574Z,100476.78
2023-04-18T21:00:34.797Z,100480.47
2023-04-18T21:03:39.366Z,100478.94
2023-04-18T21:06:47.067Z,100475.81
2023-04-18T21:09:54.490Z,100469.28
2023-04-18T21:12:58.841Z,100474.13
2023-04-18T21:16:10.282Z,100466.66
2023-04-18T21:19:12.926Z,100467.72
2023-04-18T21:22:16.535Z,100472.31
2023-04-18T21:25:21.216Z,100473.22
2023-04-18T21:28:26.329Z,100472.47
2023-04-18T21:31:33.394Z,100468.81
2023-04-18T21:34:35.649Z,100464.59
2023-04-18T21:37:40.148Z,100467.00
2023-04-18T21:40:44.884Z,100463.41
2023-04-18T21:43:52.398Z,100463.75
2023-04-18T21:46:57.057Z,100468.16
2023-04-18T21:50:02.330Z,100457.69
2023-04-18T21:53:04.568Z,100461.03
2023-04-18T21:56:09.424Z,100458.72
2023-04-18T21:59:16.381Z,100457.03
2023-04-18T22:02:21.595Z,100454.22
2023-04-18T22:05:26.277Z,100451.97
2023-04-18T22:08:32.251Z,100462.03
2023-04-18T22:11:39.411Z,100459.28
2023-04-18T22:14:48.439Z,100455.53
2023-04-18T22:17:54.290Z,100453.03
2023-04-18T22:20:59.587Z,100454.69
2023-04-18T22:24:01.941Z,100444.06
2023-04-18T22:27:04.338Z,100442.09
2023-04-18T22:30:09.532Z,100448.97
2023-04-18T22:33:14.101Z,100446.56
2023-04-18T22:36:20.969Z,100441.66
2023-04-18T22:39:26.194Z,100444.56
2023-04-18T22:42:29.901Z,100427.31
2023-04-18T22:45:36.284Z,100431.19
2023-04-18T22:48:44.910Z,100429.75
2023-04-18T22:51:47.393Z,100431.66
2023-04-18T22:54:49.611Z,100423.63
2023-04-18T22:57:51.901Z,100412.41
2023-04-18T23:00:54.132Z,100414.66
2023-04-18T23:03:56.748Z,100411.75
2023-04-18T23:06:59.118Z,100406.00
2023-04-18T23:10:04.125Z,100412.81
2023-04-18T23:13:10.988Z,100405.09
2023-04-18T23:16:15.721Z,100398.03
2023-04-18T23:19:17.956Z,100402.88
2023-04-18T23:22:24.138Z,100403.69
2023-04-18T23:25:26.468Z,100390.88
2023-04-18T23:28:28.864Z,100380.69
2023-04-18T23:31:34.186Z,100389.47
2023-04-18T23:34:38.752Z,100357.34
2023-04-18T23:37:43.627Z,100380.16
2023-04-18T23:40:45.854Z,100370.63
2023-04-18T23:43:52.439Z,100364.53
2023-04-18T23:46:58.598Z,100359.50
2023-04-18T23:50:04.310Z,100355.19
2023-04-18T23:53:06.568Z,100354.34
2023-04-18T23:56:08.821Z,100338.28
2023-04-18T23:59:13.299Z,100328.56
